sensor_id;sensor_type;location;lat;lon;timestamp;temperature;humidity
18882;DHT22;9573;50.948;11.600;2023-08-17T00:00:20;20.60;99.90
18882;DHT22;9573;50.948;11.600;2023-08-17T00:02:49;20.70;99.90
18882;DHT22;9573;50.948;11.600;2023-08-17T00:05:16;20.70;99.90
18882;DHT22;9573;50.948;11.600;2023-08-17T00:07:43;20.70;99.90
18882;DHT22;9573;50.948;11.600;2023-08-17T00:10:11;20.70;99.90
18882;DHT22;9573;50.948;11.600;2023-08-17T00:12:38;20.70;99.90
18882;DHT22;9573;50.948;11.600;2023-08-17T00:15:06;20.70;99.90
18882;DHT22;9573;50.948;11.600;2023-08-17T00:17:33;20.70;99.90
18882;DHT22;9573;50.948;11.600;2023-08-17T00:20:02;20.70;99.90
18882;DHT22;9573;50.948;11.600;2023-08-17T00:22:30;20.70;99.90
18882;DHT22;9573;50.948;11.600;2023-08-17T00:24:57;20.70;99.90
18882;DHT22;9573;50.948;11.600;2023-08-17T00:27:25;20.70;99.90
18882;DHT22;9573;50.948;11.600;2023-08-17T00:29:52;20.80;99.90
18882;DHT22;9573;50.948;11.600;2023-08-17T00:32:19;20.90;99.90
18882;DHT22;9573;50.948;11.600;2023-08-17T00:34:46;21.10;99.90
18882;DHT22;9573;50.948;11.600;2023-08-17T00:37:14;21.20;99.90
18882;DHT22;9573;50.948;11.600;2023-08-17T00:39:41;21.30;99.90
18882;DHT22;9573;50.948;11.600;2023-08-17T00:42:08;21.50;99.90
18882;DHT22;9573;50.948;11.600;2023-08-17T00:44:36;21.50;99.90
18882;DHT22;9573;50.948;11.600;2023-08-17T00:47:03;21.60;99.90
18882;DHT22;9573;50.948;11.600;2023-08-17T00:49:32;21.70;99.90
18882;DHT22;9573;50.948;11.600;2023-08-17T00:52:00;21.60;99.90
18882;DHT22;9573;50.948;11.600;2023-08-17T00:54:30;21.60;99.90
18882;DHT22;9573;50.948;11.600;2023-08-17T00:56:58;21.60;99.90
18882;DHT22;9573;50.948;11.600;2023-08-17T00:59:26;21.50;99.90
18882;DHT22;9573;50.948;11.600;2023-08-17T01:01:53;21.50;99.90
18882;DHT22;9573;50.948;11.600;2023-08-17T01:04:20;21.40;99.90
18882;DHT22;9573;50.948;11.600;2023-08-17T01:06:47;21.40;99.90
18882;DHT22;9573;50.948;11.600;2023-08-17T01:09:14;21.30;99.90
18882;DHT22;9573;50.948;11.600;2023-08-17T01:11:49;21.30;99.90
18882;DHT22;9573;50.948;11.600;2023-08-17T01:14:24;21.30;99.90
18882;DHT22;9573;50.948;11.600;2023-08-17T01:16:58;21.20;99.90
18882;DHT22;9573;50.948;11.600;2023-08-17T01:19:29;21.20;99.90
18882;DHT22;9573;50.948;11.600;2023-08-17T01:22:00;21.10;99.90
18882;DHT22;9573;50.948;11.600;2023-08-17T01:24:32;21.00;99.90
18882;DHT22;9573;50.948;11.600;2023-08-17T01:26:59;20.90;99.90
18882;DHT22;9573;50.948;11.600;2023-08-17T01:29:26;20.80;99.90
18882;DHT22;9573;50.948;11.600;2023-08-17T01:32:01;20.70;99.90
18882;DHT22;9573;50.948;11.600;2023-08-17T01:34:36;20.60;99.90
18882;DHT22;9573;50.948;11.600;2023-08-17T01:37:07;20.60;99.90
18882;DHT22;9573;50.948;11.600;2023-08-17T01:39:41;20.60;99.90
18882;DHT22;9573;50.948;11.600;2023-08-17T01:42:12;20.60;99.90
18882;DHT22;9573;50.948;11.600;2023-08-17T01:44:39;20.60;99.90
18882;DHT22;9573;50.948;11.600;2023-08-17T01:47:07;20.60;99.90
18882;DHT22;9573;50.948;11.600;2023-08-17T01:49:35;20.60;99.90
18882;DHT22;9573;50.948;11.600;2023-08-17T01:52:02;20.40;99.90
18882;DHT22;9573;50.948;11.600;2023-08-17T01:54:29;20.10;99.90
18882;DHT22;9573;50.948;11.600;2023-08-17T01:56:57;19.70;99.90
18882;DHT22;9573;50.948;11.600;2023-08-17T01:59:24;19.50;99.90
18882;DHT22;9573;50.948;11.600;2023-08-17T02:01:51;19.20;99.90
18882;DHT22;9573;50.948;11.600;2023-08-17T02:04:19;19.10;99.90
18882;DHT22;9573;50.948;11.600;2023-08-17T02:06:46;19.00;99.90
18882;DHT22;9573;50.948;11.600;2023-08-17T02:09:13;18.90;99.90
18882;DHT22;9573;50.948;11.600;2023-08-17T02:11:40;18.90;99.90
18882;DHT22;9573;50.948;11.600;2023-08-17T02:14:08;18.90;99.90
18882;DHT22;9573;50.948;11.600;2023-08-17T02:16:35;18.90;99.90
18882;DHT22;9573;50.948;11.600;2023-08-17T02:19:02;18.90;99.90
18882;DHT22;9573;50.948;11.600;2023-08-17T02:21:29;18.80;99.90
18882;DHT22;9573;50.948;11.600;2023-08-17T02:23:56;18.70;99.90
18882;DHT22;9573;50.948;11.600;2023-08-17T02:26:23;18.70;99.90
18882;DHT22;9573;50.948;11.600;2023-08-17T02:28:50;18.60;99.90
18882;DHT22;9573;50.948;11.600;2023-08-17T02:31:19;18.60;99.90
18882;DHT22;9573;50.948;11.600;2023-08-17T02:33:46;18.70;99.90
18882;DHT22;9573;50.948;11.600;2023-08-17T02:36:13;18.70;99.90
18882;DHT22;9573;50.948;11.600;2023-08-17T02:38:40;18.80;99.90
18882;DHT22;9573;50.948;11.600;2023-08-17T02:41:07;18.80;99.90
18882;DHT22;9573;50.948;11.600;2023-08-17T02:43:34;18.80;99.90
18882;DHT22;9573;50.948;11.600;2023-08-17T02:46:01;18.80;99.90
18882;DHT22;9573;50.948;11.600;2023-08-17T02:48:30;18.70;99.90
18882;DHT22;9573;50.948;11.600;2023-08-17T02:50:57;18.70;99.90
18882;DHT22;9573;50.948;11.600;2023-08-17T02:53:24;18.70;99.90
18882;DHT22;9573;50.948;11.600;2023-08-17T02:55:51;18.70;99.90
18882;DHT22;9573;50.948;11.600;2023-08-17T02:58:18;18.70;99.90
18882;DHT22;9573;50.948;11.600;2023-08-17T03:00:46;18.70;99.90
18882;DHT22;9573;50.948;11.600;2023-08-17T03:03:13;18.70;99.90
18882;DHT22;9573;50.948;11.600;2023-08-17T03:05:41;18.70;99.90
18882;DHT22;9573;50.948;11.600;2023-08-17T03:08:08;18.70;99.90
18882;DHT22;9573;50.948;11.600;2023-08-17T03:10:37;18.60;99.90
18882;DHT22;9573;50.948;11.600;2023-08-17T03:20:23;18.40;99.90
18882;DHT22;9573;50.948;11.600;2023-08-17T03:22:52;18.40;99.90
18882;DHT22;9573;50.948;11.600;2023-08-17T03:25:19;18.40;99.90
18882;DHT22;9573;50.948;11.600;2023-08-17T03:27:46;18.40;99.90
18882;DHT22;9573;50.948;11.600;2023-08-17T03:30:13;18.50;99.90
18882;DHT22;9573;50.948;11.600;2023-08-17T03:32:40;18.50;99.90
18882;DHT22;9573;50.948;11.600;2023-08-17T03:35:08;18.50;99.90
18882;DHT22;9573;50.948;11.600;2023-08-17T03:37:35;18.50;99.90
18882;DHT22;9573;50.948;11.600;2023-08-17T03:40:06;18.50;99.90
18882;DHT22;9573;50.948;11.600;2023-08-17T03:42:34;18.40;99.90
18882;DHT22;9573;50.948;11.600;2023-08-17T03:45:01;18.40;99.90
18882;DHT22;9573;50.948;11.600;2023-08-17T03:47:28;18.40;99.90
18882;DHT22;9573;50.948;11.600;2023-08-17T03:49:56;18.40;99.90
18882;DHT22;9573;50.948;11.600;2023-08-17T03:52:23;18.40;99.90
18882;DHT22;9573;50.948;11.600;2023-08-17T03:54:50;18.50;99.90
18882;DHT22;9573;50.948;11.600;2023-08-17T03:57:19;18.40;99.90
18882;DHT22;9573;50.948;11.600;2023-08-17T03:59:46;18.50;99.90
18882;DHT22;9573;50.948;11.600;2023-08-17T04:02:13;18.50;99.90
18882;DHT22;9573;50.948;11.600;2023-08-17T04:04:40;18.50;99.90
18882;DHT22;9573;50.948;11.600;2023-08-17T04:07:07;18.50;99.90
18882;DHT22;9573;50.948;11.600;2023-08-17T04:09:34;18.50;99.90
18882;DHT22;9573;50.948;11.600;2023-08-17T04:12:01;18.60;99.90
18882;DHT22;9573;50.948;11.600;2023-08-17T04:14:31;18.60;99.90
18882;DHT22;9573;50.948;11.600;2023-08-17T04:16:58;18.60;99.90
18882;DHT22;9573;50.948;11.600;2023-08-17T04:19:26;18.60;99.90
18882;DHT22;9573;50.948;11.600;2023-08-17T04:21:53;18.60;99.90
18882;DHT22;9573;50.948;11.600;2023-08-17T04:24:20;18.60;99.90
18882;DHT22;9573;50.948;11.600;2023-08-17T04:26:47;18.50;99.90
18882;DHT22;9573;50.948;11.600;2023-08-17T04:29:14;18.50;99.90
18882;DHT22;9573;50.948;11.600;2023-08-17T04:31:42;18.50;99.90
18882;DHT22;9573;50.948;11.600;2023-08-17T04:34:10;18.50;99.90
18882;DHT22;9573;50.948;11.600;2023-08-17T04:36:37;18.50;99.90
18882;DHT22;9573;50.948;11.600;2023-08-17T04:39:04;18.50;99.90
18882;DHT22;9573;50.948;11.600;2023-08-17T04:41:32;18.50;99.90
18882;DHT22;9573;50.948;11.600;2023-08-17T04:43:59;18.60;99.90
18882;DHT22;9573;50.948;11.600;2023-08-17T04:46:26;18.60;99.90
18882;DHT22;9573;50.948;11.600;2023-08-17T04:48:54;18.60;99.90
18882;DHT22;9573;50.948;11.600;2023-08-17T04:51:21;18.70;99.90
18882;DHT22;9573;50.948;11.600;2023-08-17T04:53:48;18.70;99.90
18882;DHT22;9573;50.948;11.600;2023-08-17T04:56:15;18.70;99.90
18882;DHT22;9573;50.948;11.600;2023-08-17T04:58:42;18.70;99.90
18882;DHT22;9573;50.948;11.600;2023-08-17T05:01:09;18.80;99.90
18882;DHT22;9573;50.948;11.600;2023-08-17T05:03:37;18.80;99.90
18882;DHT22;9573;50.948;11.600;2023-08-17T05:06:05;18.80;99.90
18882;DHT22;9573;50.948;11.600;2023-08-17T05:08:32;18.80;99.90
18882;DHT22;9573;50.948;11.600;2023-08-17T05:10:59;18.80;99.90
18882;DHT22;9573;50.948;11.600;2023-08-17T05:13:26;18.80;99.90
18882;DHT22;9573;50.948;11.600;2023-08-17T05:15:53;18.80;99.90
18882;DHT22;9573;50.948;11.600;2023-08-17T05:18:20;18.80;99.90
18882;DHT22;9573;50.948;11.600;2023-08-17T05:20:48;18.80;99.90
18882;DHT22;9573;50.948;11.600;2023-08-17T05:23:16;18.90;99.90
18882;DHT22;9573;50.948;11.600;2023-08-17T05:25:46;18.80;99.90
18882;DHT22;9573;50.948;11.600;2023-08-17T05:28:14;18.80;99.90
18882;DHT22;9573;50.948;11.600;2023-08-17T05:30:41;18.90;99.90
18882;DHT22;9573;50.948;11.600;2023-08-17T05:33:08;18.90;99.90
18882;DHT22;9573;50.948;11.600;2023-08-17T05:35:35;18.80;99.90
18882;DHT22;9573;50.948;11.600;2023-08-17T05:38:02;18.90;99.90
18882;DHT22;9573;50.948;11.600;2023-08-17T05:40:31;18.90;99.90
18882;DHT22;9573;50.948;11.600;2023-08-17T05:42:59;19.00;99.90
18882;DHT22;9573;50.948;11.600;2023-08-17T05:45:26;19.00;99.90
18882;DHT22;9573;50.948;11.600;2023-08-17T05:47:53;19.00;99.90
18882;DHT22;9573;50.948;11.600;2023-08-17T05:50:20;19.00;99.90
18882;DHT22;9573;50.948;11.600;2023-08-17T05:52:47;19.00;99.90
18882;DHT22;9573;50.948;11.600;2023-08-17T05:55:14;18.90;99.90
18882;DHT22;9573;50.948;11.600;2023-08-17T05:57:43;18.90;99.90
18882;DHT22;9573;50.948;11.600;2023-08-17T06:00:11;19.00;99.90
18882;DHT22;9573;50.948;11.600;2023-08-17T06:02:39;19.00;99.90
18882;DHT22;9573;50.948;11.600;2023-08-17T06:05:07;19.00;99.90
18882;DHT22;9573;50.948;11.600;2023-08-17T06:07:34;19.00;99.90
18882;DHT22;9573;50.948;11.600;2023-08-17T06:10:04;19.00;99.90
18882;DHT22;9573;50.948;11.600;2023-08-17T06:12:32;19.10;99.90
18882;DHT22;9573;50.948;11.600;2023-08-17T06:15:01;19.10;99.90
18882;DHT22;9573;50.948;11.600;2023-08-17T06:17:29;19.20;99.90
18882;DHT22;9573;50.948;11.600;2023-08-17T06:19:56;19.30;99.90
18882;DHT22;9573;50.948;11.600;2023-08-17T06:22:23;19.40;99.90
18882;DHT22;9573;50.948;11.600;2023-08-17T06:24:50;19.60;99.90
18882;DHT22;9573;50.948;11.600;2023-08-17T06:27:18;19.70;99.90
18882;DHT22;9573;50.948;11.600;2023-08-17T06:29:45;19.70;99.90
18882;DHT22;9573;50.948;11.600;2023-08-17T06:32:14;19.70;99.90
18882;DHT22;9573;50.948;11.600;2023-08-17T06:34:41;19.80;99.90
18882;DHT22;9573;50.948;11.600;2023-08-17T06:37:08;19.90;99.90
18882;DHT22;9573;50.948;11.600;2023-08-17T06:39:35;19.90;99.90
18882;DHT22;9573;50.948;11.600;2023-08-17T06:42:03;20.00;99.90
18882;DHT22;9573;50.948;11.600;2023-08-17T06:44:30;20.10;99.90
18882;DHT22;9573;50.948;11.600;2023-08-17T06:46:58;20.50;99.90
18882;DHT22;9573;50.948;11.600;2023-08-17T06:49:26;22.10;99.90
18882;DHT22;9573;50.948;11.600;2023-08-17T06:51:54;23.70;99.90
18882;DHT22;9573;50.948;11.600;2023-08-17T06:54:21;24.50;99.90
18882;DHT22;9573;50.948;11.600;2023-08-17T06:56:48;25.60;99.90
18882;DHT22;9573;50.948;11.600;2023-08-17T06:59:15;25.60;99.90
18882;DHT22;9573;50.948;11.600;2023-08-17T07:01:42;25.70;99.90
18882;DHT22;9573;50.948;11.600;2023-08-17T07:04:09;27.30;99.90
18882;DHT22;9573;50.948;11.600;2023-08-17T07:06:37;29.60;99.90
18882;DHT22;9573;50.948;11.600;2023-08-17T07:09:06;30.80;99.90
18882;DHT22;9573;50.948;11.600;2023-08-17T07:11:33;33.10;99.90
18882;DHT22;9573;50.948;11.600;2023-08-17T07:14:00;33.80;99.90
18882;DHT22;9573;50.948;11.600;2023-08-17T07:16:27;34.50;99.90
18882;DHT22;9573;50.948;11.600;2023-08-17T07:18:54;35.60;99.90
18882;DHT22;9573;50.948;11.600;2023-08-17T07:21:21;35.40;99.90
18882;DHT22;9573;50.948;11.600;2023-08-17T07:23:51;34.50;99.90
18882;DHT22;9573;50.948;11.600;2023-08-17T07:26:18;36.00;99.90
18882;DHT22;9573;50.948;11.600;2023-08-17T07:28:46;38.30;98.10
18882;DHT22;9573;50.948;11.600;2023-08-17T07:31:13;38.30;94.70
18882;DHT22;9573;50.948;11.600;2023-08-17T07:33:40;37.20;95.50
18882;DHT22;9573;50.948;11.600;2023-08-17T07:36:08;36.10;96.60
18882;DHT22;9573;50.948;11.600;2023-08-17T07:38:35;34.90;96.70
18882;DHT22;9573;50.948;11.600;2023-08-17T07:41:03;34.10;98.40
18882;DHT22;9573;50.948;11.600;2023-08-17T07:43:30;33.20;99.90
18882;DHT22;9573;50.948;11.600;2023-08-17T07:45:57;32.80;99.90
18882;DHT22;9573;50.948;11.600;2023-08-17T07:48:24;32.20;99.90
18882;DHT22;9573;50.948;11.600;2023-08-17T07:50:52;31.50;99.90
18882;DHT22;9573;50.948;11.600;2023-08-17T07:53:20;30.70;99.90
18882;DHT22;9573;50.948;11.600;2023-08-17T07:55:47;29.90;99.90
18882;DHT22;9573;50.948;11.600;2023-08-17T07:58:15;29.40;99.90
18882;DHT22;9573;50.948;11.600;2023-08-17T08:00:42;29.70;99.90
18882;DHT22;9573;50.948;11.600;2023-08-17T08:03:09;31.10;99.90
18882;DHT22;9573;50.948;11.600;2023-08-17T08:05:37;31.60;99.90
18882;DHT22;9573;50.948;11.600;2023-08-17T08:08:04;32.00;99.90
18882;DHT22;9573;50.948;11.600;2023-08-17T08:10:32;32.10;99.90
18882;DHT22;9573;50.948;11.600;2023-08-17T08:12:59;32.60;99.90
18882;DHT22;9573;50.948;11.600;2023-08-17T08:15:27;33.50;99.90
18882;DHT22;9573;50.948;11.600;2023-08-17T08:17:54;34.70;99.90
18882;DHT22;9573;50.948;11.600;2023-08-17T08:20:21;35.90;98.00
18882;DHT22;9573;50.948;11.600;2023-08-17T08:22:48;34.90;98.10
18882;DHT22;9573;50.948;11.600;2023-08-17T08:25:16;33.70;99.80
18882;DHT22;9573;50.948;11.600;2023-08-17T08:27:43;34.10;99.90
18882;DHT22;9573;50.948;11.600;2023-08-17T08:30:12;33.90;99.90
18882;DHT22;9573;50.948;11.600;2023-08-17T08:32:41;33.40;99.90
18882;DHT22;9573;50.948;11.600;2023-08-17T08:35:08;33.60;99.90
18882;DHT22;9573;50.948;11.600;2023-08-17T08:37:35;35.50;98.30
18882;DHT22;9573;50.948;11.600;2023-08-17T08:40:03;37.10;94.70
18882;DHT22;9573;50.948;11.600;2023-08-17T08:42:31;38.00;92.60
18882;DHT22;9573;50.948;11.600;2023-08-17T08:44:58;37.00;92.00
18882;DHT22;9573;50.948;11.600;2023-08-17T08:47:26;37.90;90.60
18882;DHT22;9573;50.948;11.600;2023-08-17T08:49:59;39.60;89.90
18882;DHT22;9573;50.948;11.600;2023-08-17T08:52:32;39.90;85.70
18882;DHT22;9573;50.948;11.600;2023-08-17T08:55:12;39.10;87.10
18882;DHT22;9573;50.948;11.600;2023-08-17T08:57:43;41.00;82.10
18882;DHT22;9573;50.948;11.600;2023-08-17T09:00:12;40.30;80.50
18882;DHT22;9573;50.948;11.600;2023-08-17T09:02:40;40.80;79.20
18882;DHT22;9573;50.948;11.600;2023-08-17T09:05:11;42.20;74.90
18882;DHT22;9573;50.948;11.600;2023-08-17T09:07:39;42.40;74.50
18882;DHT22;9573;50.948;11.600;2023-08-17T09:10:07;42.30;72.80
18882;DHT22;9573;50.948;11.600;2023-08-17T09:12:36;40.70;75.00
18882;DHT22;9573;50.948;11.600;2023-08-17T09:15:04;40.00;77.30
18882;DHT22;9573;50.948;11.600;2023-08-17T09:17:32;41.30;74.20
18882;DHT22;9573;50.948;11.600;2023-08-17T09:20:00;41.00;73.40
18882;DHT22;9573;50.948;11.600;2023-08-17T09:22:44;39.20;76.70
18882;DHT22;9573;50.948;11.600;2023-08-17T09:25:11;38.50;78.40
18882;DHT22;9573;50.948;11.600;2023-08-17T09:27:48;37.80;79.90
18882;DHT22;9573;50.948;11.600;2023-08-17T09:30:16;38.50;80.10
18882;DHT22;9573;50.948;11.600;2023-08-17T09:32:43;40.00;77.50
18882;DHT22;9573;50.948;11.600;2023-08-17T09:35:10;40.70;76.50
18882;DHT22;9573;50.948;11.600;2023-08-17T09:37:37;41.90;73.50
18882;DHT22;9573;50.948;11.600;2023-08-17T09:40:06;43.00;69.30
18882;DHT22;9573;50.948;11.600;2023-08-17T09:42:35;42.70;68.70
18882;DHT22;9573;50.948;11.600;2023-08-17T09:45:03;42.60;68.70
18882;DHT22;9573;50.948;11.600;2023-08-17T09:47:30;42.60;68.00
18882;DHT22;9573;50.948;11.600;2023-08-17T09:49:57;42.80;69.70
18882;DHT22;9573;50.948;11.600;2023-08-17T09:52:24;42.80;68.20
18882;DHT22;9573;50.948;11.600;2023-08-17T09:54:52;43.10;66.70
18882;DHT22;9573;50.948;11.600;2023-08-17T09:57:22;43.40;65.30
18882;DHT22;9573;50.948;11.600;2023-08-17T09:59:49;43.40;65.80
18882;DHT22;9573;50.948;11.600;2023-08-17T10:02:22;43.80;65.20
18882;DHT22;9573;50.948;11.600;2023-08-17T10:04:51;43.90;65.50
18882;DHT22;9573;50.948;11.600;2023-08-17T10:07:20;43.70;63.10
18882;DHT22;9573;50.948;11.600;2023-08-17T10:09:54;43.60;64.80
18882;DHT22;9573;50.948;11.600;2023-08-17T10:12:27;43.20;64.30
18882;DHT22;9573;50.948;11.600;2023-08-17T10:14:59;42.50;65.90
18882;DHT22;9573;50.948;11.600;2023-08-17T10:17:35;41.00;69.10
18882;DHT22;9573;50.948;11.600;2023-08-17T10:20:05;40.60;70.50
18882;DHT22;9573;50.948;11.600;2023-08-17T10:22:39;40.60;69.30
18882;DHT22;9573;50.948;11.600;2023-08-17T10:25:11;40.20;69.70
18882;DHT22;9573;50.948;11.600;2023-08-17T10:27:40;39.50;72.50
18882;DHT22;9573;50.948;11.600;2023-08-17T10:30:10;39.20;74.90
18882;DHT22;9573;50.948;11.600;2023-08-17T10:32:38;38.80;75.70
18882;DHT22;9573;50.948;11.600;2023-08-17T10:35:07;37.90;77.00
18882;DHT22;9573;50.948;11.600;2023-08-17T10:37:35;37.10;79.50
18882;DHT22;9573;50.948;11.600;2023-08-17T10:40:02;37.00;78.90
18882;DHT22;9573;50.948;11.600;2023-08-17T10:42:31;37.60;77.70
18882;DHT22;9573;50.948;11.600;2023-08-17T10:45:01;38.20;77.20
18882;DHT22;9573;50.948;11.600;2023-08-17T10:47:30;38.50;76.90
18882;DHT22;9573;50.948;11.600;2023-08-17T10:50:01;38.50;76.90
18882;DHT22;9573;50.948;11.600;2023-08-17T10:52:31;39.60;75.50
18882;DHT22;9573;50.948;11.600;2023-08-17T10:55:00;40.30;72.60
18882;DHT22;9573;50.948;11.600;2023-08-17T10:57:35;41.00;71.60
18882;DHT22;9573;50.948;11.600;2023-08-17T11:00:22;41.60;71.70
18882;DHT22;9573;50.948;11.600;2023-08-17T11:02:53;41.90;68.40
18882;DHT22;9573;50.948;11.600;2023-08-17T11:05:38;42.10;68.30
18882;DHT22;9573;50.948;11.600;2023-08-17T11:08:08;42.10;66.80
18882;DHT22;9573;50.948;11.600;2023-08-17T11:10:37;41.90;69.40
18882;DHT22;9573;50.948;11.600;2023-08-17T11:13:04;41.90;68.20
18882;DHT22;9573;50.948;11.600;2023-08-17T11:15:38;41.70;68.80
18882;DHT22;9573;50.948;11.600;2023-08-17T11:18:08;41.80;68.40
18882;DHT22;9573;50.948;11.600;2023-08-17T11:20:37;41.80;68.10
18882;DHT22;9573;50.948;11.600;2023-08-17T11:23:06;41.50;68.10
18882;DHT22;9573;50.948;11.600;2023-08-17T11:25:34;41.50;69.30
18882;DHT22;9573;50.948;11.600;2023-08-17T11:28:01;41.40;67.50
18882;DHT22;9573;50.948;11.600;2023-08-17T11:30:29;41.00;67.50
18882;DHT22;9573;50.948;11.600;2023-08-17T11:32:58;40.60;68.20
18882;DHT22;9573;50.948;11.600;2023-08-17T11:35:25;39.80;69.00
18882;DHT22;9573;50.948;11.600;2023-08-17T11:37:52;39.50;71.80
18882;DHT22;9573;50.948;11.600;2023-08-17T11:40:20;39.80;71.70
18882;DHT22;9573;50.948;11.600;2023-08-17T11:42:47;40.00;70.50
18882;DHT22;9573;50.948;11.600;2023-08-17T11:45:15;39.50;72.90
18882;DHT22;9573;50.948;11.600;2023-08-17T11:47:42;39.60;72.80
18882;DHT22;9573;50.948;11.600;2023-08-17T11:50:12;39.90;73.90
18882;DHT22;9573;50.948;11.600;2023-08-17T11:52:40;40.20;72.20
18882;DHT22;9573;50.948;11.600;2023-08-17T11:55:08;40.20;72.80
18882;DHT22;9573;50.948;11.600;2023-08-17T11:57:36;40.00;71.10
18882;DHT22;9573;50.948;11.600;2023-08-17T12:00:05;39.40;71.90
18882;DHT22;9573;50.948;11.600;2023-08-17T12:02:35;38.70;74.70
18882;DHT22;9573;50.948;11.600;2023-08-17T12:05:08;38.50;75.80
18882;DHT22;9573;50.948;11.600;2023-08-17T12:07:36;38.30;75.00
18882;DHT22;9573;50.948;11.600;2023-08-17T12:10:04;38.00;75.40
18882;DHT22;9573;50.948;11.600;2023-08-17T12:12:36;37.90;76.20
18882;DHT22;9573;50.948;11.600;2023-08-17T12:15:06;38.00;77.10
18882;DHT22;9573;50.948;11.600;2023-08-17T12:17:33;37.70;76.00
18882;DHT22;9573;50.948;11.600;2023-08-17T12:20:01;37.20;77.90
18882;DHT22;9573;50.948;11.600;2023-08-17T12:22:29;36.80;77.70
18882;DHT22;9573;50.948;11.600;2023-08-17T12:24:58;36.70;79.40
18882;DHT22;9573;50.948;11.600;2023-08-17T12:27:25;36.50;80.50
18882;DHT22;9573;50.948;11.600;2023-08-17T12:29:52;35.80;82.60
18882;DHT22;9573;50.948;11.600;2023-08-17T12:32:20;35.00;86.10
18882;DHT22;9573;50.948;11.600;2023-08-17T12:34:47;34.80;87.70
18882;DHT22;9573;50.948;11.600;2023-08-17T12:37:19;35.00;87.10
18882;DHT22;9573;50.948;11.600;2023-08-17T12:39:47;34.90;86.50
18882;DHT22;9573;50.948;11.600;2023-08-17T12:42:15;35.20;88.40
18882;DHT22;9573;50.948;11.600;2023-08-17T12:44:43;35.40;86.50
18882;DHT22;9573;50.948;11.600;2023-08-17T12:47:11;35.40;87.10
18882;DHT22;9573;50.948;11.600;2023-08-17T12:49:38;35.50;87.30
18882;DHT22;9573;50.948;11.600;2023-08-17T12:52:05;36.00;87.00
18882;DHT22;9573;50.948;11.600;2023-08-17T12:54:32;35.60;85.40
18882;DHT22;9573;50.948;11.600;2023-08-17T12:56:59;34.80;88.00
18882;DHT22;9573;50.948;11.600;2023-08-17T12:59:29;34.00;90.40
18882;DHT22;9573;50.948;11.600;2023-08-17T13:01:56;33.40;91.80
18882;DHT22;9573;50.948;11.600;2023-08-17T13:04:23;33.30;91.40
18882;DHT22;9573;50.948;11.600;2023-08-17T13:06:50;33.70;91.60
18882;DHT22;9573;50.948;11.600;2023-08-17T13:09:19;34.40;90.80
18882;DHT22;9573;50.948;11.600;2023-08-17T13:11:46;34.80;90.20
18882;DHT22;9573;50.948;11.600;2023-08-17T13:14:14;34.80;88.70
18882;DHT22;9573;50.948;11.600;2023-08-17T13:16:42;34.60;88.60
18882;DHT22;9573;50.948;11.600;2023-08-17T13:19:10;34.30;90.40
18882;DHT22;9573;50.948;11.600;2023-08-17T13:21:37;34.10;91.50
18882;DHT22;9573;50.948;11.600;2023-08-17T13:24:04;33.80;91.40
18882;DHT22;9573;50.948;11.600;2023-08-17T13:26:32;33.50;92.00
18882;DHT22;9573;50.948;11.600;2023-08-17T13:28:59;33.30;92.20
18882;DHT22;9573;50.948;11.600;2023-08-17T13:31:26;33.10;92.90
18882;DHT22;9573;50.948;11.600;2023-08-17T13:33:55;32.80;93.10
18882;DHT22;9573;50.948;11.600;2023-08-17T13:36:22;32.70;93.50
18882;DHT22;9573;50.948;11.600;2023-08-17T13:38:49;32.60;93.20
18882;DHT22;9573;50.948;11.600;2023-08-17T13:41:16;32.80;93.70
18882;DHT22;9573;50.948;11.600;2023-08-17T13:43:43;32.80;93.40
18882;DHT22;9573;50.948;11.600;2023-08-17T13:46:12;32.80;93.90
18882;DHT22;9573;50.948;11.600;2023-08-17T13:48:39;32.80;93.80
18882;DHT22;9573;50.948;11.600;2023-08-17T13:51:08;32.90;94.10
18882;DHT22;9573;50.948;11.600;2023-08-17T13:53:36;33.00;94.20
18882;DHT22;9573;50.948;11.600;2023-08-17T13:56:03;33.00;93.70
18882;DHT22;9573;50.948;11.600;2023-08-17T13:58:31;33.00;94.00
18882;DHT22;9573;50.948;11.600;2023-08-17T14:00:58;32.90;93.90
18882;DHT22;9573;50.948;11.600;2023-08-17T14:03:25;32.70;94.30
18882;DHT22;9573;50.948;11.600;2023-08-17T14:05:52;32.40;94.50
18882;DHT22;9573;50.948;11.600;2023-08-17T14:08:21;31.90;95.20
18882;DHT22;9573;50.948;11.600;2023-08-17T14:10:48;31.40;96.00
18882;DHT22;9573;50.948;11.600;2023-08-17T14:13:15;30.90;97.10
18882;DHT22;9573;50.948;11.600;2023-08-17T14:15:42;30.60;97.70
18882;DHT22;9573;50.948;11.600;2023-08-17T14:18:09;30.20;98.30
18882;DHT22;9573;50.948;11.600;2023-08-17T14:20:36;30.00;98.70
18882;DHT22;9573;50.948;11.600;2023-08-17T14:23:04;29.80;99.40
18882;DHT22;9573;50.948;11.600;2023-08-17T14:25:32;29.60;99.90
18882;DHT22;9573;50.948;11.600;2023-08-17T14:27:59;29.40;99.90
18882;DHT22;9573;50.948;11.600;2023-08-17T14:30:26;29.20;99.90
18882;DHT22;9573;50.948;11.600;2023-08-17T14:32:53;28.90;99.90
18882;DHT22;9573;50.948;11.600;2023-08-17T14:35:20;28.70;99.90
18882;DHT22;9573;50.948;11.600;2023-08-17T14:37:47;28.50;99.90
18882;DHT22;9573;50.948;11.600;2023-08-17T14:40:15;28.40;99.90
18882;DHT22;9573;50.948;11.600;2023-08-17T14:42:44;28.30;99.90
18882;DHT22;9573;50.948;11.600;2023-08-17T14:45:11;28.20;99.90
18882;DHT22;9573;50.948;11.600;2023-08-17T14:47:38;28.20;99.90
18882;DHT22;9573;50.948;11.600;2023-08-17T14:50:06;28.20;99.90
18882;DHT22;9573;50.948;11.600;2023-08-17T14:52:33;28.20;99.90
18882;DHT22;9573;50.948;11.600;2023-08-17T14:55:00;28.20;99.90
18882;DHT22;9573;50.948;11.600;2023-08-17T14:57:29;28.20;99.90
18882;DHT22;9573;50.948;11.600;2023-08-17T14:59:58;28.20;99.90
18882;DHT22;9573;50.948;11.600;2023-08-17T15:02:25;28.00;99.90
18882;DHT22;9573;50.948;11.600;2023-08-17T15:04:53;28.00;99.90
18882;DHT22;9573;50.948;11.600;2023-08-17T15:07:20;27.80;99.90
18882;DHT22;9573;50.948;11.600;2023-08-17T15:09:47;27.70;99.90
18882;DHT22;9573;50.948;11.600;2023-08-17T15:12:14;27.40;99.90
18882;DHT22;9573;50.948;11.600;2023-08-17T15:14:42;27.00;99.90
18882;DHT22;9573;50.948;11.600;2023-08-17T15:17:10;26.50;99.90
18882;DHT22;9573;50.948;11.600;2023-08-17T15:19:38;26.00;99.90
18882;DHT22;9573;50.948;11.600;2023-08-17T15:22:05;25.80;99.90
18882;DHT22;9573;50.948;11.600;2023-08-17T15:24:32;25.60;99.90
18882;DHT22;9573;50.948;11.600;2023-08-17T15:26:59;25.60;99.90
18882;DHT22;9573;50.948;11.600;2023-08-17T15:29:26;25.50;99.90
18882;DHT22;9573;50.948;11.600;2023-08-17T15:31:53;25.40;99.90
18882;DHT22;9573;50.948;11.600;2023-08-17T15:34:21;25.30;99.90
18882;DHT22;9573;50.948;11.600;2023-08-17T15:36:48;25.10;99.90
18882;DHT22;9573;50.948;11.600;2023-08-17T15:39:16;24.70;99.90
18882;DHT22;9573;50.948;11.600;2023-08-17T15:41:43;23.80;99.90